Time;durP1;ratioP1;P1;durP2;ratioP2;P2;SDS_P1;SDS_P2;PMS_P1;PMS_P2;Temp;Humidity;BMP_temperature;BMP_pressure;BME280_temperature;BME280_humidity;BME280_pressure;Samples;Min_cycle;Max_cycle;Signal;HPM_P1;HPM_P2
2022/09/23 00:00:22;;;;;;;6.33;4.97;;;;;;;6.92;100.00;98445.56;5104331;28;20225;-67
2022/09/23 00:02:50;;;;;;;6.07;5.53;;;;;;;6.86;100.00;98438.00;5114487;28;20286;-67
2022/09/23 00:05:17;;;;;;;6.10;5.50;;;;;;;6.86;100.00;98445.88;5103521;28;20716;-67
2022/09/23 00:07:44;;;;;;;6.13;5.47;;;;;;;6.81;100.00;98447.00;5115996;28;20288;-68
2022/09/23 00:10:11;;;;;;;6.03;4.90;;;;;;;6.79;100.00;98441.81;5118052;28;20606;-68
2022/09/23 00:12:37;;;;;;;5.87;5.20;;;;;;;6.77;100.00;98441.06;5101521;28;20258;-68
2022/09/23 00:15:04;;;;;;;5.90;5.17;;;;;;;6.74;100.00;98441.22;5112826;28;20264;-68
2022/09/23 00:17:31;;;;;;;6.50;5.50;;;;;;;6.72;100.00;98437.78;5105285;28;20266;-68
2022/09/23 00:20:00;;;;;;;5.50;5.00;;;;;;;6.73;100.00;98442.13;5104691;28;20264;-68
2022/09/23 00:22:26;;;;;;;5.93;5.23;;;;;;;6.72;100.00;98450.94;5114328;28;20578;-68
2022/09/23 00:24:53;;;;;;;5.90;5.27;;;;;;;6.72;100.00;98447.47;5102638;28;20266;-68
2022/09/23 00:27:20;;;;;;;6.27;5.67;;;;;;;6.73;100.00;98439.50;5108699;28;20268;-68
2022/09/23 00:29:47;;;;;;;6.10;5.17;;;;;;;6.74;100.00;98440.34;5110635;28;20225;-68
2022/09/23 00:32:13;;;;;;;7.00;5.83;;;;;;;6.71;100.00;98443.16;5101106;28;20315;-68
2022/09/23 00:34:40;;;;;;;6.07;5.43;;;;;;;6.70;100.00;98438.78;5112847;28;20261;-68
2022/09/23 00:37:08;;;;;;;6.10;5.50;;;;;;;6.69;100.00;98439.72;5106189;28;20259;-68
2022/09/23 00:39:35;;;;;;;6.77;5.50;;;;;;;6.64;100.00;98439.97;5104426;28;20261;-68
2022/09/23 00:42:01;;;;;;;6.40;5.40;;;;;;;6.63;100.00;98435.63;5113819;28;20261;-68
2022/09/23 00:44:44;;;;;;;6.47;5.77;;;;;;;6.66;100.00;98432.84;5100022;28;20253;-67
2022/09/23 00:47:19;;;;;;;7.27;5.83;;;;;;;6.65;100.00;98430.31;5106583;28;20261;-68
2022/09/23 00:49:49;;;;;;;7.47;6.70;;;;;;;6.63;100.00;98430.38;5113099;28;20224;-67
2022/09/23 00:52:20;;;;;;;8.80;6.70;;;;;;;6.64;100.00;98431.22;5099496;28;20263;-67
2022/09/23 00:54:48;;;;;;;8.40;7.07;;;;;;;6.64;100.00;98424.19;5105745;28;20261;-67
2022/09/23 00:57:19;;;;;;;8.57;7.67;;;;;;;6.64;100.00;98429.44;5104637;28;20293;-67
2022/09/23 00:59:46;;;;;;;8.60;7.70;;;;;;;6.63;100.00;98427.75;5113545;28;20250;-67
2022/09/23 01:02:14;;;;;;;9.00;8.10;;;;;;;6.63;100.00;98422.50;5101816;28;20587;-67
2022/09/23 01:04:41;;;;;;;10.97;8.53;;;;;;;6.64;100.00;98421.56;5108231;28;20282;-67
2022/09/23 01:07:07;;;;;;;9.60;8.60;;;;;;;6.63;100.00;98417.25;5110115;28;20607;-68
2022/09/23 01:09:36;;;;;;;10.93;9.33;;;;;;;6.62;100.00;98420.81;5098726;28;20357;-68
2022/09/23 01:12:16;;;;;;;11.13;8.93;;;;;;;6.61;100.00;98413.88;5112464;28;20263;-68
2022/09/23 01:14:48;;;;;;;12.10;10.13;;;;;;;6.63;100.00;98411.13;5107563;28;20227;-67
2022/09/23 01:17:27;;;;;;;10.77;9.67;;;;;;;6.62;100.00;98419.94;5101493;28;20668;-68
2022/09/23 01:20:32;;;;;;;13.93;10.20;;;;;;;6.58;100.00;98418.38;5101223;28;20260;-68
2022/09/23 01:23:17;;;;;;;10.40;9.30;;;;;;;6.60;100.00;98406.06;5112910;28;20267;-68
2022/09/23 01:26:05;;;;;;;12.20;9.33;;;;;;;6.60;100.00;98417.38;5100907;28;20246;-66
2022/09/23 01:28:52;;;;;;;10.97;9.80;;;;;;;6.55;100.00;98403.66;5105763;28;20255;-67
2022/09/23 01:31:25;;;;;;;12.90;10.50;;;;;;;6.53;100.00;98410.72;5113095;28;20294;-68
2022/09/23 01:33:57;;;;;;;11.17;9.53;;;;;;;6.53;100.00;98410.72;5103062;28;20229;-67
2022/09/23 01:36:28;;;;;;;12.37;9.70;;;;;;;6.51;100.00;98401.22;5104116;28;20233;-68
2022/09/23 01:39:00;;;;;;;11.73;9.20;;;;;;;6.50;100.00;98408.28;5112494;28;20262;-67
2022/09/23 01:41:48;;;;;;;10.57;9.13;;;;;;;6.48;100.00;98398.78;5100491;28;20260;-68
2022/09/23 01:44:21;;;;;;;13.67;9.97;;;;;;;6.45;100.00;98397.13;5105785;28;20229;-67
2022/09/23 01:46:53;;;;;;;12.63;9.97;;;;;;;6.46;100.00;98393.59;5112344;28;20245;-67
2022/09/23 01:49:25;;;;;;;11.63;9.87;;;;;;;6.46;100.00;98388.34;5100723;28;20254;-68
2022/09/23 01:51:56;;;;;;;12.70;9.67;;;;;;;6.42;100.00;98386.78;5107901;28;20218;-67
2022/09/23 01:54:30;;;;;;;12.50;10.00;;;;;;;6.42;100.00;98392.03;5102170;28;20556;-68
2022/09/23 01:57:01;;;;;;;12.70;10.57;;;;;;;6.41;100.00;98394.75;5115084;28;20527;-67
2022/09/23 01:59:34;;;;;;;13.30;9.97;;;;;;;6.38;100.00;98393.13;5110221;28;20220;-67
2022/09/23 02:02:06;;;;;;;12.33;9.87;;;;;;;6.38;100.00;98387.88;5106269;28;20263;-67
2022/09/23 02:04:38;;;;;;;13.13;10.00;;;;;;;6.32;100.00;98396.03;5100230;28;20614;-67
2022/09/23 02:07:13;;;;;;;13.53;10.80;;;;;;;6.28;100.00;98383.97;5100682;28;20296;-67
2022/09/23 02:09:43;;;;;;;12.93;9.63;;;;;;;6.30;100.00;98390.00;5106934;28;20239;-67
2022/09/23 02:12:16;;;;;;;16.47;10.57;;;;;;;6.30;100.00;98384.75;5110610;28;20264;-67
2022/09/23 02:14:48;;;;;;;12.33;9.43;;;;;;;6.24;100.00;98381.56;5100029;28;20230;-67
2022/09/23 02:17:21;;;;;;;12.33;9.90;;;;;;;6.22;100.00;98383.44;5109289;28;20265;-67
2022/09/23 02:19:53;;;;;;;12.90;10.43;;;;;;;6.20;100.00;98380.88;5108587;28;20263;-67
2022/09/23 02:22:26;;;;;;;16.13;10.77;;;;;;;6.19;100.00;98376.56;5100024;28;20272;-67
2022/09/23 02:24:53;;;;;;;13.10;10.40;;;;;;;6.18;100.00;98387.13;5111258;28;20256;-67
2022/09/23 02:27:25;;;;;;;11.47;9.83;;;;;;;6.13;100.00;98383.84;5104573;28;20223;-67
2022/09/23 02:29:57;;;;;;;13.10;10.47;;;;;;;6.09;100.00;98380.53;5102111;28;20256;-67
2022/09/23 02:32:33;;;;;;;14.40;10.67;;;;;;;6.05;100.00;98378.97;5112875;28;20260;-67
2022/09/23 02:35:09;;;;;;;12.43;9.97;;;;;;;6.04;100.00;98374.66;5107639;28;20257;-67
2022/09/23 02:37:42;;;;;;;12.50;10.30;;;;;;;6.04;100.00;98377.28;5114022;28;20642;-66
2022/09/23 02:40:16;;;;;;;12.20;9.53;;;;;;;6.02;100.00;98379.13;5118358;28;20632;-66
2022/09/23 02:42:56;;;;;;;11.70;9.43;;;;;;;6.05;100.00;98375.50;5106323;28;20255;-67
2022/09/23 02:45:23;;;;;;;12.23;10.03;;;;;;;6.06;100.00;98378.06;5107213;28;20590;-67
2022/09/23 02:47:56;;;;;;;10.80;9.67;;;;;;;6.06;100.00;98374.59;5116014;28;20278;-67
2022/09/23 02:50:23;;;;;;;13.40;9.50;;;;;;;6.09;100.00;98372.66;5104593;28;20268;-67
2022/09/23 02:52:50;;;;;;;10.47;8.97;;;;;;;6.07;100.00;98376.28;5116922;28;20218;-67
2022/09/23 02:55:19;;;;;;;10.73;9.60;;;;;;;6.01;100.00;98369.56;5105056;28;20593;-67
2022/09/23 02:57:47;;;;;;;12.07;9.50;;;;;;;6.01;100.00;98368.69;5116966;28;20222;-67
2022/09/23 03:00:15;;;;;;;10.63;9.17;;;;;;;6.01;100.00;98359.06;5114845;28;20650;-67
2022/09/23 03:03:10;;;;;;;13.17;9.47;;;;;;;5.98;100.00;98364.44;5108521;28;20230;-67
2022/09/23 03:05:44;;;;;;;10.57;9.40;;;;;;;5.97;100.00;98368.00;5102812;28;20253;-67
2022/09/23 03:08:28;;;;;;;10.83;9.27;;;;;;;5.95;100.00;98356.72;5113665;28;20304;-68
2022/09/23 03:11:00;;;;;;;9.73;8.67;;;;;;;5.96;100.00;98361.06;5111275;28;20222;-67
2022/09/23 03:13:33;;;;;;;11.47;9.77;;;;;;;5.96;100.00;98358.44;5102728;28;20223;-67
2022/09/23 03:16:09;;;;;;;10.90;8.43;;;;;;;5.93;100.00;98361.19;5114063;28;20225;-67
2022/09/23 03:18:43;;;;;;;9.27;8.27;;;;;;;5.87;100.00;98353.59;5109877;28;20260;-68
2022/09/23 03:21:16;;;;;;;11.37;9.10;;;;;;;5.86;100.00;98358.94;5101898;28;20574;-67
2022/09/23 03:23:45;;;;;;;10.63;9.23;;;;;;;5.88;100.00;98363.19;5102943;28;20266;-68
2022/09/23 03:26:16;;;;;;;10.83;9.50;;;;;;;5.85;100.00;98360.69;5110715;28;20593;-67
2022/09/23 03:28:45;;;;;;;10.87;9.77;;;;;;;5.85;100.00;98357.22;5111877;28;20261;-67
2022/09/23 03:31:14;;;;;;;11.13;9.13;;;;;;;5.82;100.00;98358.25;5102401;28;20229;-67
2022/09/23 03:33:47;;;;;;;11.73;8.60;;;;;;;5.79;100.00;98362.72;5113978;28;20261;-67
2022/09/23 03:39:07;;;;;;;10.77;8.80;;;;;;;5.80;100.00;98360.06;5102709;28;20276;-67
2022/09/23 03:41:38;;;;;;;10.43;9.10;;;;;;;5.77;100.00;98357.56;5113506;28;20260;-67
2022/09/23 03:44:07;;;;;;;12.70;8.87;;;;;;;5.84;100.00;98355.50;5107810;28;20259;-67
2022/09/23 03:46:35;;;;;;;11.13;8.97;;;;;;;5.78;100.00;98351.38;5102784;28;20685;-66
2022/09/23 03:49:10;;;;;;;10.87;9.53;;;;;;;5.78;100.00;98350.53;5114971;28;20226;-67
2022/09/23 03:51:36;;;;;;;13.30;9.17;;;;;;;5.76;100.00;98341.88;5105390;28;20226;-67
2022/09/23 03:54:03;;;;;;;10.53;8.97;;;;;;;5.76;100.00;98348.00;5107513;28;20681;-67
2022/09/23 03:56:30;;;;;;;10.90;8.60;;;;;;;5.79;100.00;98342.59;5113414;28;20268;-67
2022/09/23 03:58:56;;;;;;;9.20;8.23;;;;;;;5.79;100.00;98337.34;5115945;28;20265;-67
2022/09/23 04:01:23;;;;;;;10.20;8.30;;;;;;;5.79;100.00;98334.72;5104717;28;20265;-67
2022/09/23 04:03:51;;;;;;;9.93;7.83;;;;;;;5.81;100.00;98340.78;5108006;28;20266;-67
2022/09/23 04:06:19;;;;;;;9.03;7.93;;;;;;;5.76;100.00;98331.41;5112767;28;20657;-67
2022/09/23 04:08:45;;;;;;;9.17;8.10;;;;;;;5.76;100.00;98332.25;5101902;28;20261;-67
2022/09/23 04:11:12;;;;;;;9.47;8.40;;;;;;;5.75;100.00;98332.31;5111342;28;20262;-67
2022/09/23 04:13:39;;;;;;;10.70;7.90;;;;;;;5.73;100.00;98326.31;5107359;28;20265;-66
2022/09/23 04:16:06;;;;;;;10.13;8.67;;;;;;;5.71;100.00;98322.88;5103658;28;20222;-66
2022/09/23 04:18:33;;;;;;;9.20;8.03;;;;;;;5.70;100.00;98322.06;5114315;28;20258;-66
2022/09/23 04:20:59;;;;;;;10.33;8.10;;;;;;;5.72;100.00;98322.81;5103730;28;20261;-66
2022/09/23 04:23:28;;;;;;;10.00;8.57;;;;;;;5.68;100.00;98320.44;5108066;28;20253;-66
2022/09/23 04:25:55;;;;;;;11.73;8.43;;;;;;;5.67;100.00;98321.34;5112029;28;20242;-66
2022/09/23 04:28:22;;;;;;;9.17;8.10;;;;;;;5.60;100.00;98319.91;5101447;28;20257;-67
2022/09/23 04:30:49;;;;;;;12.47;9.30;;;;;;;5.56;100.00;98313.97;5111893;28;20267;-67
2022/09/23 04:33:17;;;;;;;9.17;7.70;;;;;;;5.54;100.00;98315.81;5107649;28;20651;-67
2022/09/23 04:35:43;;;;;;;9.63;7.90;;;;;;;5.54;100.00;98315.81;5103682;28;20263;-67
2022/09/23 04:38:11;;;;;;;9.87;8.37;;;;;;;5.55;100.00;98311.44;5112271;28;20263;-66
2022/09/23 04:40:39;;;;;;;8.40;7.57;;;;;;;5.54;100.00;98310.56;5103339;28;20614;-67
2022/09/23 04:43:06;;;;;;;11.07;8.33;;;;;;;5.53;100.00;98314.13;5107542;28;20254;-67
2022/09/23 04:45:33;;;;;;;11.07;7.93;;;;;;;5.54;100.00;98314.94;5111383;28;20637;-68
2022/09/23 04:48:00;;;;;;;9.70;8.57;;;;;;;5.48;100.00;98318.72;5100992;28;20234;-68
2022/09/23 04:50:26;;;;;;;10.73;8.30;;;;;;;5.49;100.00;98320.41;5111993;28;20490;-68
2022/09/23 04:52:54;;;;;;;10.43;8.77;;;;;;;5.46;100.00;98320.56;5100389;28;20254;-68
2022/09/23 04:55:20;;;;;;;12.47;9.70;;;;;;;5.46;100.00;98315.34;5110363;28;20225;-68
2022/09/23 04:57:48;;;;;;;10.93;8.90;;;;;;;5.47;100.00;98313.53;5100930;28;20254;-68
2022/09/23 05:00:15;;;;;;;10.33;9.23;;;;;;;5.45;100.00;98321.47;5111947;28;20258;-67
2022/09/23 05:02:43;;;;;;;11.67;9.17;;;;;;;5.51;100.00;98323.81;5106758;28;20257;-67
2022/09/23 05:05:09;;;;;;;10.03;8.30;;;;;;;5.50;100.00;98329.97;5101970;28;20257;-67
2022/09/23 05:07:36;;;;;;;11.60;8.87;;;;;;;5.52;100.00;98330.78;5114613;28;20329;-66
2022/09/23 05:10:03;;;;;;;9.57;8.30;;;;;;;5.53;100.00;98324.59;5112261;28;20273;-66
2022/09/23 05:12:30;;;;;;;12.27;8.57;;;;;;;5.53;100.00;98335.09;5106340;28;20722;-67
2022/09/23 05:14:58;;;;;;;10.07;8.27;;;;;;;5.54;100.00;98335.94;5103949;28;20265;-67
2022/09/23 05:17:25;;;;;;;11.07;8.83;;;;;;;5.55;100.00;98333.25;5113429;28;20234;-67
2022/09/23 05:19:51;;;;;;;10.53;8.87;;;;;;;5.62;100.00;98344.31;5101860;28;20645;-67
2022/09/23 05:22:18;;;;;;;12.10;10.07;;;;;;;5.68;100.00;98342.22;5108311;28;20265;-67
2022/09/23 05:24:44;;;;;;;12.00;9.50;;;;;;;5.73;100.00;98336.81;5109960;28;20265;-67
2022/09/23 05:27:11;;;;;;;11.90;9.30;;;;;;;5.77;100.00;98333.97;5100049;28;20242;-67
2022/09/23 05:29:38;;;;;;;11.07;9.30;;;;;;;5.82;100.00;98336.38;5099535;28;20319;-67
2022/09/23 05:32:06;;;;;;;11.40;9.23;;;;;;;5.87;100.00;98339.66;5108721;28;20222;-67
2022/09/23 05:34:33;;;;;;;14.17;9.17;;;;;;;5.87;100.00;98340.47;5109457;28;20230;-67
2022/09/23 05:37:00;;;;;;;10.90;8.30;;;;;;;5.93;100.00;98331.50;5100799;28;20258;-67
2022/09/23 05:39:26;;;;;;;9.30;8.30;;;;;;;5.93;100.00;98340.19;5112921;28;20288;-67
2022/09/23 05:41:54;;;;;;;12.80;8.67;;;;;;;5.98;100.00;98343.44;5105158;28;20672;-67
2022/09/23 05:44:21;;;;;;;9.37;8.37;;;;;;;5.99;100.00;98339.91;5104693;28;20334;-67
2022/09/23 05:46:47;;;;;;;8.83;7.93;;;;;;;6.03;100.00;98341.47;5113157;28;20309;-67
2022/09/23 05:49:15;;;;;;;12.67;9.07;;;;;;;6.10;100.00;98344.66;5100887;28;20533;-67
2022/09/23 05:51:42;;;;;;;11.47;9.17;;;;;;;6.15;100.00;98340.88;5108853;28;20588;-67
2022/09/23 05:54:09;;;;;;;15.53;8.60;;;;;;;6.28;100.00;98341.97;5101462;28;20267;-67
2022/09/23 05:56:36;;;;;;;11.93;8.80;;;;;;;6.38;100.00;98339.75;5111303;28;20253;-67
2022/09/23 05:59:04;;;;;;;13.50;8.73;;;;;;;6.46;100.00;98335.81;5113178;28;20227;-67
2022/09/23 06:01:32;;;;;;;11.27;8.70;;;;;;;6.53;100.00;98347.72;5104383;28;20672;-67
2022/09/23 06:04:00;;;;;;;10.77;9.17;;;;;;;6.63;100.00;98330.59;5104831;28;20285;-67
2022/09/23 06:06:30;;;;;;;10.63;8.57;;;;;;;6.70;100.00;98341.63;5113197;28;20529;-67
2022/09/23 06:08:57;;;;;;;11.37;8.17;;;;;;;6.79;100.00;98339.38;5104705;28;20281;-68
2022/09/23 06:11:24;;;;;;;10.97;8.07;;;;;;;6.90;100.00;98337.06;5112316;28;20229;-69
2022/09/23 06:13:54;;;;;;;12.83;8.73;;;;;;;7.00;100.00;98337.44;5112793;28;20253;-67
2022/09/23 06:16:21;;;;;;;9.30;8.30;;;;;;;7.07;100.00;98339.66;5104246;28;20260;-67
2022/09/23 06:18:48;;;;;;;10.83;7.70;;;;;;;7.20;100.00;98330.22;5116110;28;20258;-67
2022/09/23 06:21:16;;;;;;;10.33;8.17;;;;;;;7.33;100.00;98326.84;5108298;28;20678;-66
2022/09/23 06:23:45;;;;;;;8.67;7.77;;;;;;;7.45;100.00;98325.34;5119469;28;20265;-66
2022/09/23 06:26:13;;;;;;;9.70;7.87;;;;;;;7.54;100.00;98319.59;5103820;28;20269;-66
2022/09/23 06:28:41;;;;;;;10.63;7.93;;;;;;;7.62;100.00;98326.16;5115696;28;20265;-66
2022/09/23 06:31:12;;;;;;;10.00;7.60;;;;;;;7.74;100.00;98322.00;5109077;28;20260;-66
2022/09/23 06:33:39;;;;;;;12.93;7.87;;;;;;;7.85;100.00;98320.44;5104450;28;20268;-66
2022/09/23 06:36:07;;;;;;;11.00;7.80;;;;;;;7.98;100.00;98320.63;5116408;28;20301;-67
2022/09/23 06:38:35;;;;;;;8.83;7.23;;;;;;;8.13;100.00;98320.63;5113638;28;20257;-67
2022/09/23 06:41:03;;;;;;;9.03;7.43;;;;;;;8.25;100.00;98316.47;5108193;28;20228;-67
2022/09/23 06:43:30;;;;;;;9.00;7.90;;;;;;;8.36;100.00;98321.97;5105058;28;20264;-67
2022/09/23 06:45:58;;;;;;;9.47;7.23;;;;;;;8.48;100.00;98308.09;5114969;28;20265;-66
2022/09/23 06:48:26;;;;;;;9.60;7.37;;;;;;;8.61;100.00;98322.25;5102051;28;20316;-66
2022/09/23 06:50:54;;;;;;;7.43;6.63;;;;;;;8.71;100.00;98328.69;5108966;28;20226;-66
2022/09/23 06:53:22;;;;;;;9.10;6.97;;;;;;;8.74;100.00;98325.84;5101953;28;20260;-66
2022/09/23 06:55:49;;;;;;;8.27;6.87;;;;;;;8.81;100.00;98325.41;5114763;28;20224;-66
2022/09/23 06:58:17;;;;;;;7.33;6.50;;;;;;;8.86;100.00;98327.78;5103721;28;20249;-66
2022/09/23 07:00:44;;;;;;;7.83;6.63;;;;;;;8.96;100.00;98328.94;5108659;28;20629;-67
2022/09/23 07:03:10;;;;;;;7.30;6.60;;;;;;;9.02;100.00;98332.06;5112015;28;20517;-67
2022/09/23 07:05:38;;;;;;;8.90;6.27;;;;;;;9.14;100.00;98327.84;5101907;28;20257;-67
2022/09/23 07:08:07;;;;;;;7.97;6.87;;;;;;;9.28;100.00;98330.47;5112940;28;20668;-67
2022/09/23 07:10:34;;;;;;;6.97;6.07;;;;;;;9.40;100.00;98335.00;5107810;28;20225;-67
2022/09/23 07:13:01;;;;;;;7.73;5.93;;;;;;;9.58;100.00;98333.88;5104698;28;20599;-66
2022/09/23 07:15:29;;;;;;;9.67;6.30;;;;;;;9.78;100.00;98336.13;5112800;28;20256;-67
2022/09/23 07:17:56;;;;;;;7.37;6.60;;;;;;;9.98;100.00;98335.72;5102862;28;20263;-65
2022/09/23 07:20:23;;;;;;;7.00;6.03;;;;;;;10.17;100.00;98333.63;5108390;28;20262;-67
2022/09/23 07:22:51;;;;;;;6.07;5.47;;;;;;;10.41;99.84;98334.69;5111375;28;20532;-67
2022/09/23 07:25:18;;;;;;;7.70;5.87;;;;;;;10.71;98.42;98330.03;5101536;28;20579;-66
2022/09/23 07:27:45;;;;;;;6.27;5.57;;;;;;;10.96;96.30;98335.34;5112492;28;20235;-66
2022/09/23 07:30:13;;;;;;;6.60;5.73;;;;;;;11.21;95.04;98325.66;5107290;28;20222;-66
2022/09/23 07:32:41;;;;;;;7.33;5.20;;;;;;;11.45;93.71;98328.41;5104095;28;20601;-66
2022/09/23 07:35:09;;;;;;;6.67;5.63;;;;;;;11.69;92.73;98329.38;5114118;28;20262;-67
2022/09/23 07:37:36;;;;;;;6.73;5.57;;;;;;;11.98;90.71;98328.16;5105645;28;20219;-66
2022/09/23 07:40:03;;;;;;;7.50;5.20;;;;;;;12.17;90.02;98328.50;5107956;28;20226;-66
2022/09/23 07:42:30;;;;;;;5.20;4.70;;;;;;;12.33;88.94;98327.28;5109550;28;20290;-66
2022/09/23 07:44:57;;;;;;;7.10;5.03;;;;;;;12.49;88.05;98330.50;5100954;28;20265;-66
2022/09/23 07:47:23;;;;;;;7.57;5.50;;;;;;;12.60;86.38;98321.75;5112159;28;20328;-66
2022/09/23 07:49:53;;;;;;;6.23;5.30;;;;;;;12.73;84.84;98322.53;5106307;28;20257;-67
2022/09/23 07:52:19;;;;;;;6.03;5.13;;;;;;;12.80;85.69;98324.63;5105219;28;20233;-67
2022/09/23 07:54:46;;;;;;;5.87;5.27;;;;;;;12.91;84.59;98319.31;5100893;28;20228;-67
2022/09/23 07:57:13;;;;;;;5.23;4.43;;;;;;;12.98;84.44;98323.25;5117393;28;20261;-67
2022/09/23 07:59:42;;;;;;;6.47;4.90;;;;;;;13.07;82.46;98324.38;5108071;28;20692;-67
2022/09/23 08:02:13;;;;;;;5.03;4.57;;;;;;;13.16;82.14;98315.69;5105274;28;20232;-64
2022/09/23 08:04:40;;;;;;;4.27;3.87;;;;;;;13.22;82.02;98321.41;5097988;28;20222;-65
2022/09/23 08:07:08;;;;;;;4.17;3.77;;;;;;;13.29;81.89;98317.31;5115968;28;20336;-65
2022/09/23 08:09:40;;;;;;;4.07;3.60;;;;;;;13.35;81.41;98331.91;5105006;28;20291;-65
2022/09/23 08:12:07;;;;;;;4.13;3.17;;;;;;;13.41;80.95;98320.81;5106709;28;20248;-65
2022/09/23 08:14:33;;;;;;;3.30;2.90;;;;;;;13.48;79.38;98336.16;5102554;28;20309;-66
2022/09/23 08:17:00;;;;;;;3.80;3.50;;;;;;;13.57;78.43;98331.94;5102195;28;20262;-67
2022/09/23 08:19:27;;;;;;;4.17;3.40;;;;;;;13.63;77.07;98326.97;5101431;28;20269;-68
2022/09/23 08:21:53;;;;;;;4.30;3.40;;;;;;;13.68;76.56;98326.63;5105915;28;20602;-69
2022/09/23 08:24:22;;;;;;;4.07;3.20;;;;;;;13.71;75.92;98329.03;5103945;28;20252;-70
2022/09/23 08:26:52;;;;;;;3.67;3.30;;;;;;;13.77;74.01;98331.22;5101331;28;20226;-69
2022/09/23 08:29:20;;;;;;;3.27;2.97;;;;;;;13.76;74.14;98335.66;5102167;28;20242;-70
2022/09/23 08:31:48;;;;;;;3.43;3.13;;;;;;;13.80;74.06;98331.81;5105748;28;20613;-68
2022/09/23 08:34:15;;;;;;;3.20;2.90;;;;;;;13.85;73.31;98332.31;5100504;28;20237;-68
2022/09/23 08:36:42;;;;;;;3.00;2.70;;;;;;;13.93;72.87;98326.38;5101797;28;20262;-69
2022/09/23 08:39:12;;;;;;;3.10;2.80;;;;;;;14.00;71.99;98323.09;5102155;28;20259;-69
2022/09/23 08:41:46;;;;;;;3.80;2.97;;;;;;;14.06;72.50;98324.44;5105828;28;20261;-68
2022/09/23 08:44:17;;;;;;;5.67;2.83;;;;;;;14.13;71.71;98325.63;5102777;28;20304;-70
2022/09/23 08:46:49;;;;;;;3.30;3.00;;;;;;;14.20;70.87;98329.53;5102261;28;20314;-70
2022/09/23 08:49:25;;;;;;;8.00;4.30;;;;;;;14.27;72.15;98322.72;5104792;28;20357;-70
2022/09/23 08:51:54;;;;;;;24.33;7.97;;;;;;;14.32;75.29;98315.25;5104342;28;20268;-70
2022/09/23 08:54:22;;;;;;;7.73;3.90;;;;;;;14.51;72.40;98320.75;5102065;28;20226;-68
2022/09/23 08:56:52;;;;;;;3.73;3.00;;;;;;;14.60;71.05;98325.31;5112316;28;20655;-67
2022/09/23 08:59:27;;;;;;;2.83;2.63;;;;;;;14.64;68.91;98316.09;5105978;28;20226;-67
2022/09/23 09:01:59;;;;;;;3.13;2.80;;;;;;;14.68;68.43;98312.22;5107882;28;20265;-67
2022/09/23 09:04:27;;;;;;;4.00;2.90;;;;;;;14.71;68.84;98319.94;5109964;28;20261;-67
2022/09/23 09:07:00;;;;;;;3.43;2.70;;;;;;;14.73;69.16;98320.66;5107398;28;20309;-66
2022/09/23 09:09:30;;;;;;;3.17;2.87;;;;;;;14.73;70.36;98323.34;5106686;28;20270;-67
2022/09/23 09:12:02;;;;;;;2.70;2.30;;;;;;;14.71;70.25;98317.28;5108538;28;20629;-68
2022/09/23 09:14:37;;;;;;;3.20;2.90;;;;;;;14.74;70.36;98322.34;5111292;28;20219;-67
2022/09/23 09:17:07;;;;;;;3.50;3.03;;;;;;;14.77;70.23;98319.44;5103705;28;20243;-66
2022/09/23 09:19:56;;;;;;;3.53;3.20;;;;;;;14.81;68.97;98312.88;5107915;28;20238;-67
2022/09/23 09:22:39;;;;;;;5.60;3.37;;;;;;;14.82;68.73;98317.22;5098522;28;20269;-66
2022/09/23 09:25:17;;;;;;;4.60;3.20;;;;;;;14.84;68.62;98312.66;5099039;28;20271;-68
2022/09/23 09:27:47;;;;;;;3.67;2.93;;;;;;;14.91;69.12;98313.81;5099532;28;20243;-67
2022/09/23 09:30:14;;;;;;;4.33;3.27;;;;;;;14.97;67.19;98314.13;5106220;28;20357;-66
2022/09/23 09:32:47;;;;;;;3.60;2.63;;;;;;;14.98;66.78;98309.66;5102313;28;20264;-66
2022/09/23 09:35:23;;;;;;;4.30;3.20;;;;;;;15.07;68.33;98303.56;5099036;28;20239;-65
2022/09/23 09:37:50;;;;;;;3.53;3.00;;;;;;;15.13;68.56;98308.34;5099050;28;20215;-65
2022/09/23 09:40:19;;;;;;;2.90;2.60;;;;;;;15.20;67.80;98297.06;5099136;28;20227;-66
2022/09/23 09:42:49;;;;;;;3.37;2.80;;;;;;;15.28;67.87;98293.75;5101758;28;20311;-67
2022/09/23 09:45:25;;;;;;;3.00;2.70;;;;;;;15.34;66.86;98294.09;5112695;28;20541;-67
2022/09/23 09:48:01;;;;;;;5.17;3.70;;;;;;;15.46;69.42;98294.88;5116117;28;20360;-66
2022/09/23 09:50:46;;;;;;;4.53;3.23;;;;;;;15.43;66.68;98290.66;5116054;28;20648;-65
2022/09/23 09:53:34;;;;;;;4.10;3.27;;;;;;;15.50;67.59;98293.63;5111823;28;20223;-67
2022/09/23 09:56:04;;;;;;;4.60;3.07;;;;;;;15.54;66.81;98276.41;5101385;28;20618;-67
2022/09/23 09:58:42;;;;;;;4.83;3.00;;;;;;;15.57;66.32;98269.00;5103247;28;20220;-67
2022/09/23 10:01:17;;;;;;;5.73;3.07;;;;;;;15.61;65.02;98274.88;5113863;28;20624;-67
2022/09/23 10:03:45;;;;;;;5.17;3.63;;;;;;;15.71;66.31;98267.78;5115634;28;20229;-67
2022/09/23 10:06:18;;;;;;;4.07;3.40;;;;;;;15.73;65.47;98271.16;5115476;28;20381;-66
2022/09/23 10:09:03;;;;;;;5.07;3.47;;;;;;;15.80;61.83;98261.63;5112250;28;20598;-66
2022/09/23 10:11:30;;;;;;;3.13;2.87;;;;;;;15.80;62.79;98266.97;5102749;28;20233;-67
2022/09/23 10:14:12;;;;;;;3.37;3.07;;;;;;;15.86;64.58;98266.44;5102682;28;20650;-66
2022/09/23 10:16:40;;;;;;;5.47;3.30;;;;;;;15.94;63.19;98261.28;5106383;28;20355;-66
2022/09/23 10:19:15;;;;;;;6.00;3.50;;;;;;;16.03;65.08;98269.31;5102725;28;20228;-66
2022/09/23 10:21:42;;;;;;;3.63;3.33;;;;;;;16.17;64.76;98261.75;5100879;28;20643;-67
2022/09/23 10:24:22;;;;;;;3.70;2.90;;;;;;;16.29;63.54;98265.16;5101612;28;20274;-67
2022/09/23 10:26:54;;;;;;;4.30;3.43;;;;;;;16.30;60.54;98259.69;5103172;28;20229;-66
2022/09/23 10:29:28;;;;;;;3.60;2.93;;;;;;;16.29;60.88;98247.31;5102449;28;20249;-67
2022/09/23 10:32:18;;;;;;;4.07;3.47;;;;;;;16.36;62.80;98259.13;5102486;28;20637;-67
2022/09/23 10:34:49;;;;;;;3.73;3.37;;;;;;;16.45;63.72;98257.50;5114682;28;20232;-67
2022/09/23 10:37:22;;;;;;;3.67;3.37;;;;;;;16.50;63.62;98253.41;5115241;28;20788;-68
2022/09/23 10:48:45;;;;;;;6.20;4.70;;;;;;;16.75;60.79;98242.16;5070617;28;20240;-67
2022/09/23 10:51:18;;;;;;;5.77;4.60;;;;;;;16.80;60.02;98239.91;5114919;28;20261;-66
2022/09/23 10:53:57;;;;;;;5.00;4.30;;;;;;;16.80;60.20;98242.59;5101207;28;20222;-68
2022/09/23 10:56:34;;;;;;;5.03;4.03;;;;;;;16.77;61.30;98240.19;5102637;28;20645;-67
2022/09/23 10:59:42;;;;;;;4.20;3.67;;;;;;;16.88;62.73;98225.88;5102007;28;20257;-67
2022/09/23 11:02:24;;;;;;;4.53;4.13;;;;;;;17.10;61.48;98225.53;5112847;28;20232;-67
2022/09/23 11:05:03;;;;;;;4.43;4.03;;;;;;;17.17;60.35;98230.16;5114605;28;20313;-67
2022/09/23 11:07:36;;;;;;;4.53;4.13;;;;;;;17.36;59.35;98229.25;5113399;28;20617;-66
2022/09/23 11:10:25;;;;;;;4.70;4.30;;;;;;;17.45;59.50;98226.59;5113214;28;20625;-66
2022/09/23 11:13:04;;;;;;;5.03;4.03;;;;;;;17.52;59.67;98221.50;5114354;28;20277;-67
2022/09/23 11:15:42;;;;;;;3.93;3.53;;;;;;;17.63;58.14;98219.47;5110068;28;20257;-67
2022/09/23 11:18:42;;;;;;;4.60;4.20;;;;;;;17.77;54.98;98216.31;5101427;28;20502;-67
2022/09/23 11:21:25;;;;;;;3.90;3.60;;;;;;;17.69;56.51;98213.53;5098289;28;20261;-66
2022/09/23 11:24:11;;;;;;;5.23;3.97;;;;;;;17.69;58.09;98213.53;5102278;28;20588;-67
2022/09/23 11:26:46;;;;;;;4.80;4.40;;;;;;;17.70;59.90;98209.88;5101385;28;20230;-69
2022/09/23 11:29:25;;;;;;;6.07;4.10;;;;;;;17.76;60.57;98208.44;5103094;28;20277;-67
2022/09/23 11:32:05;;;;;;;4.17;3.60;;;;;;;17.79;59.59;98203.63;5109687;28;20266;-67
2022/09/23 11:35:01;;;;;;;5.23;3.23;;;;;;;17.81;59.25;98201.66;5101203;28;20265;-66
2022/09/23 11:37:33;;;;;;;4.40;4.00;;;;;;;17.84;57.20;98185.31;5111516;28;20222;-67
2022/09/23 11:40:04;;;;;;;4.10;3.70;;;;;;;17.63;54.57;98194.59;5113883;28;20265;-67
2022/09/23 11:42:35;;;;;;;4.63;4.00;;;;;;;17.74;61.31;98187.19;5112151;28;20257;-67
2022/09/23 11:45:08;;;;;;;4.17;3.60;;;;;;;17.85;60.97;98181.66;5111066;28;20221;-68
2022/09/23 11:47:41;;;;;;;3.90;3.50;;;;;;;17.91;56.89;98186.41;5113598;28;20323;-67
2022/09/23 11:50:19;;;;;;;6.30;4.50;;;;;;;17.78;54.14;98185.06;5113752;28;20221;-68
2022/09/23 11:52:50;;;;;;;5.10;4.00;;;;;;;17.88;54.67;98176.03;5109893;28;20254;-67
2022/09/23 11:55:20;;;;;;;4.80;4.03;;;;;;;17.96;53.96;98181.44;5111094;28;20245;-66
2022/09/23 11:57:50;;;;;;;5.50;4.10;;;;;;;17.88;54.96;98176.03;5100744;28;20254;-67